Time;durP1;ratioP1;P1;durP2;ratioP2;P2;SDS_P1;SDS_P2;PMS_P1;PMS_P2;Temp;Humidity;BMP_temperature;BMP_pressure;BME280_temperature;BME280_humidity;BME280_pressure;Samples;Min_cycle;Max_cycle;Signal;HPM_P1;HPM_P2
2022/10/05 00:00:20;;;;;;;8.77;7.67;;;;;;;;;;5056802;28;20220;-69
2022/10/05 00:02:46;;;;;;;11.63;8.00;;;;;;;;;;5038436;28;20676;-68
2022/10/05 00:05:18;;;;;;;9.63;8.33;;;;;;;;;;5056430;28;20543;-69
2022/10/05 00:07:44;;;;;;;13.50;8.60;;;;;;;;;;5038713;28;20178;-70
2022/10/05 00:10:14;;;;;;;10.33;8.47;;;;;;;;;;5056587;28;20184;-69
2022/10/05 00:12:40;;;;;;;14.23;8.97;;;;;;;;;;5056351;28;20601;-68
2022/10/05 00:15:09;;;;;;;11.63;9.33;;;;;;;;;;5038238;28;20217;-69
2022/10/05 00:17:35;;;;;;;10.77;8.90;;;;;;;;;;5056251;28;20171;-69
2022/10/05 00:20:11;;;;;;;13.53;8.93;;;;;;;;;;5038222;28;20209;-69
2022/10/05 00:22:37;;;;;;;12.60;9.10;;;;;;;;;;5056273;28;20712;-70
2022/10/05 00:25:07;;;;;;;13.23;9.23;;;;;;;;;;5056407;28;20175;-68
2022/10/05 00:27:36;;;;;;;9.60;8.20;;;;;;;;;;5038359;28;20266;-70
2022/10/05 00:30:10;;;;;;;11.40;8.20;;;;;;;;;;5038045;28;20186;-68
2022/10/05 00:32:36;;;;;;;12.63;8.40;;;;;;;;;;5056113;28;20203;-69
2022/10/05 00:35:02;;;;;;;11.93;8.80;;;;;;;;;;5055852;28;20289;-70
2022/10/05 00:37:28;;;;;;;14.43;9.40;;;;;;;;;;5055963;28;20174;-70
2022/10/05 00:39:54;;;;;;;12.70;8.97;;;;;;;;;;5055927;28;20178;-68
2022/10/05 00:42:41;;;;;;;11.10;8.97;;;;;;;;;;5056128;28;20200;-68
2022/10/05 00:45:14;;;;;;;14.70;8.97;;;;;;;;;;5055793;28;20200;-70
2022/10/05 00:47:52;;;;;;;14.63;9.27;;;;;;;;;;5037960;28;20179;-69
2022/10/05 00:50:24;;;;;;;14.90;9.43;;;;;;;;;;5055351;28;20706;-70
2022/10/05 00:53:04;;;;;;;14.60;8.60;;;;;;;;;;5037673;28;20206;-69
2022/10/05 00:55:47;;;;;;;16.73;8.77;;;;;;;;;;5038184;28;20213;-69
2022/10/05 00:58:32;;;;;;;13.40;8.27;;;;;;;;;;5055958;28;20623;-69
2022/10/05 01:01:06;;;;;;;10.83;9.33;;;;;;;;;;5055709;28;20190;-69
2022/10/05 01:03:48;;;;;;;12.33;8.83;;;;;;;;;;5056083;28;20194;-69
2022/10/05 01:06:32;;;;;;;15.17;8.93;;;;;;;;;;5055881;28;20510;-69
2022/10/05 01:09:16;;;;;;;16.93;9.20;;;;;;;;;;5055667;28;20182;-68
2022/10/05 01:11:46;;;;;;;16.50;9.90;;;;;;;;;;5055536;28;20202;-69
2022/10/05 01:14:31;;;;;;;10.63;8.70;;;;;;;;;;5055136;28;20182;-69
2022/10/05 01:17:07;;;;;;;12.87;9.10;;;;;;;;;;5037485;28;20588;-68
2022/10/05 01:19:50;;;;;;;12.33;9.27;;;;;;;;;;5055246;28;20178;-69
2022/10/05 01:22:30;;;;;;;11.00;9.30;;;;;;;;;;5055001;28;20761;-69
2022/10/05 01:25:14;;;;;;;14.07;9.53;;;;;;;;;;5055103;28;20224;-69
2022/10/05 01:28:02;;;;;;;11.27;9.10;;;;;;;;;;5055238;28;20178;-69
2022/10/05 01:30:30;;;;;;;13.73;10.13;;;;;;;;;;5036933;28;20182;-69
2022/10/05 01:33:05;;;;;;;12.33;9.70;;;;;;;;;;5054635;28;20273;-73
2022/10/05 01:35:45;;;;;;;15.17;9.73;;;;;;;;;;5036729;28;20217;-68
2022/10/05 01:38:34;;;;;;;16.80;9.10;;;;;;;;;;5036857;28;20265;-69
2022/10/05 01:41:05;;;;;;;14.43;9.67;;;;;;;;;;5036833;28;20663;-69
2022/10/05 01:43:50;;;;;;;10.57;8.90;;;;;;;;;;5037046;28;20597;-68
2022/10/05 01:46:23;;;;;;;15.70;9.43;;;;;;;;;;5054634;28;20185;-69
2022/10/05 01:49:08;;;;;;;16.73;10.10;;;;;;;;;;5054870;28;20607;-69
2022/10/05 01:51:44;;;;;;;16.37;9.90;;;;;;;;;;5054342;28;20183;-68
2022/10/05 01:54:29;;;;;;;11.33;9.50;;;;;;;;;;5036492;28;20646;-70
2022/10/05 01:57:14;;;;;;;15.23;9.87;;;;;;;;;;5054478;28;20577;-69
2022/10/05 01:59:53;;;;;;;12.53;9.77;;;;;;;;;;5036468;28;20174;-69
2022/10/05 02:02:22;;;;;;;18.50;10.10;;;;;;;;;;5053459;28;20202;-69
2022/10/05 02:05:18;;;;;;;11.63;9.43;;;;;;;;;;5054439;28;20182;-69
2022/10/05 02:08:13;;;;;;;16.40;10.27;;;;;;;;;;5029412;28;20194;-69
2022/10/05 02:10:44;;;;;;;15.57;9.10;;;;;;;;;;5033337;28;20189;-68
2022/10/05 02:13:13;;;;;;;14.93;9.77;;;;;;;;;;5054761;28;20202;-68
2022/10/05 02:16:06;;;;;;;14.13;10.00;;;;;;;;;;5054085;28;20276;-69
2022/10/05 02:18:43;;;;;;;13.87;9.57;;;;;;;;;;5017668;28;20222;-68
2022/10/05 02:21:09;;;;;;;12.20;9.47;;;;;;;;;;5039611;28;20182;-68
2022/10/05 02:23:37;;;;;;;12.97;9.50;;;;;;;;;;5057480;28;20259;-68
2022/10/05 02:26:04;;;;;;;12.00;9.83;;;;;;;;;;5057460;28;20178;-68
2022/10/05 02:28:33;;;;;;;16.93;9.97;;;;;;;;;;5056360;28;20232;-70
2022/10/05 02:31:09;;;;;;;15.00;10.47;;;;;;;;;;5035786;28;20189;-68
2022/10/05 02:33:35;;;;;;;10.17;9.17;;;;;;;;;;5053973;28;20198;-69
2022/10/05 02:36:10;;;;;;;13.97;11.30;;;;;;;;;;5035979;28;20214;-69
2022/10/05 02:38:55;;;;;;;12.07;9.70;;;;;;;;;;5054186;28;20162;-69
2022/10/05 02:41:39;;;;;;;13.90;10.03;;;;;;;;;;5054234;28;20178;-69
2022/10/05 02:44:11;;;;;;;14.17;10.23;;;;;;;;;;5053883;28;20174;-69
2022/10/05 02:46:41;;;;;;;14.80;10.77;;;;;;;;;;5054025;28;20618;-69
2022/10/05 02:49:23;;;;;;;19.13;10.47;;;;;;;;;;5035647;28;20266;-68
2022/10/05 02:51:54;;;;;;;14.57;10.63;;;;;;;;;;5053749;28;20198;-68
2022/10/05 02:54:26;;;;;;;14.97;10.50;;;;;;;;;;5070542;22;20226;-67
2022/10/05 02:57:04;;;;;;;17.00;11.03;;;;;;;;;;5034328;28;20229;-66
2022/10/05 02:59:37;;;;;;;15.83;11.37;;;;;;;;;;5016857;28;20187;-67
2022/10/05 03:02:09;;;;;;;14.63;10.33;;;;;;;;;;5034560;28;20176;-67
2022/10/05 03:04:52;;;;;;;12.17;10.77;;;;;;;;;;5034392;28;20195;-66
2022/10/05 03:07:24;;;;;;;13.53;11.13;;;;;;;;;;5016574;28;20175;-66
2022/10/05 03:09:52;;;;;;;13.17;10.60;;;;;;;;;;5034734;28;20183;-67
2022/10/05 03:12:24;;;;;;;13.50;10.37;;;;;;;;;;5034717;28;20175;-67
2022/10/05 03:14:59;;;;;;;15.17;10.40;;;;;;;;;;5038985;28;20314;-67
2022/10/05 03:17:28;;;;;;;14.03;11.23;;;;;;;;;;5019312;28;20174;-68
2022/10/05 03:20:20;;;;;;;14.10;11.00;;;;;;;;;;5039349;28;20186;-67
2022/10/05 03:22:51;;;;;;;22.90;12.37;;;;;;;;;;5008419;28;20562;-67
2022/10/05 03:25:23;;;;;;;20.20;12.33;;;;;;;;;;5037305;28;20202;-67
2022/10/05 03:27:57;;;;;;;15.07;10.93;;;;;;;;;;5038207;28;20190;-67
2022/10/05 03:30:25;;;;;;;18.60;11.70;;;;;;;;;;5038802;28;20159;-67
2022/10/05 03:32:54;;;;;;;16.03;11.27;;;;;;;;;;5042623;28;20225;-67
2022/10/05 03:35:20;;;;;;;15.20;11.23;;;;;;;;;;5047770;28;20206;-67
2022/10/05 03:38:03;;;;;;;14.27;11.07;;;;;;;;;;5048303;28;20179;-68
2022/10/05 03:40:36;;;;;;;16.67;11.63;;;;;;;;;;5047525;28;20528;-68
2022/10/05 03:43:27;;;;;;;14.00;11.57;;;;;;;;;;5020662;28;20179;-67
2022/10/05 03:45:59;;;;;;;15.20;11.27;;;;;;;;;;5034215;28;20225;-68
2022/10/05 03:48:29;;;;;;;15.37;11.57;;;;;;;;;;5034584;28;20168;-67
2022/10/05 03:50:58;;;;;;;17.70;12.17;;;;;;;;;;5034856;28;20639;-67
2022/10/05 03:53:44;;;;;;;15.33;11.40;;;;;;;;;;5034382;28;20270;-67
2022/10/05 03:56:16;;;;;;;15.47;11.33;;;;;;;;;;5033857;28;20207;-67
2022/10/05 03:58:49;;;;;;;14.17;11.00;;;;;;;;;;5034277;28;20233;-68
2022/10/05 04:01:19;;;;;;;13.50;10.37;;;;;;;;;;5016419;28;20703;-67
2022/10/05 04:03:47;;;;;;;17.00;10.53;;;;;;;;;;5016245;28;20210;-67
2022/10/05 04:06:16;;;;;;;13.33;9.90;;;;;;;;;;5034413;28;20192;-67
2022/10/05 04:08:43;;;;;;;14.27;9.97;;;;;;;;;;5016365;28;20241;-67
2022/10/05 04:11:11;;;;;;;10.77;9.53;;;;;;;;;;5034447;28;20175;-68
2022/10/05 04:13:50;;;;;;;12.07;9.80;;;;;;;;;;5034294;28;20273;-67
2022/10/05 04:16:22;;;;;;;14.60;10.03;;;;;;;;;;5016126;28;20234;-67
2022/10/05 04:18:58;;;;;;;14.47;10.60;;;;;;;;;;5016364;28;20576;-67
2022/10/05 04:21:27;;;;;;;11.77;9.70;;;;;;;;;;5034243;28;20773;-68
2022/10/05 04:23:53;;;;;;;13.47;10.50;;;;;;;;;;5033855;28;20210;-67
2022/10/05 04:26:22;;;;;;;12.50;10.20;;;;;;;;;;5035772;28;20175;-67
2022/10/05 04:28:51;;;;;;;15.27;10.33;;;;;;;;;;5037628;28;20176;-67
2022/10/05 04:31:25;;;;;;;12.77;9.80;;;;;;;;;;5037585;28;20205;-68
2022/10/05 04:33:59;;;;;;;17.40;11.27;;;;;;;;;;5037577;28;20201;-67
2022/10/05 04:36:31;;;;;;;15.00;10.70;;;;;;;;;;5037176;28;20194;-67
2022/10/05 04:39:00;;;;;;;15.30;10.47;;;;;;;;;;5037146;28;20163;-67
2022/10/05 04:41:43;;;;;;;15.13;10.30;;;;;;;;;;5037537;28;20194;-67
2022/10/05 04:44:18;;;;;;;15.37;11.10;;;;;;;;;;5036739;28;20191;-67
2022/10/05 04:46:44;;;;;;;12.17;10.23;;;;;;;;;;5037339;28;20207;-67
2022/10/05 04:49:28;;;;;;;19.20;12.53;;;;;;;;;;5019496;28;20179;-67
2022/10/05 04:51:54;;;;;;;13.90;10.30;;;;;;;;;;5037127;28;20316;-68
2022/10/05 04:54:26;;;;;;;15.20;11.13;;;;;;;;;;5037527;28;20703;-67
2022/10/05 04:57:00;;;;;;;15.97;10.50;;;;;;;;;;5036829;28;20249;-67
2022/10/05 04:59:37;;;;;;;14.83;10.67;;;;;;;;;;5019338;28;20643;-67
2022/10/05 05:02:22;;;;;;;13.03;9.90;;;;;;;;;;5037741;28;20263;-67
2022/10/05 05:04:56;;;;;;;16.10;11.07;;;;;;;;;;5036693;28;20278;-67
2022/10/05 05:07:22;;;;;;;14.23;11.30;;;;;;;;;;5036756;28;20217;-67
2022/10/05 05:10:06;;;;;;;12.70;10.40;;;;;;;;;;5037181;28;20183;-67
2022/10/05 05:12:48;;;;;;;17.97;9.70;;;;;;;;;;5019113;28;20183;-67
2022/10/05 05:15:33;;;;;;;14.50;9.90;;;;;;;;;;5036409;28;20203;-67
2022/10/05 05:18:10;;;;;;;12.20;9.03;;;;;;;;;;5036355;28;20159;-67
2022/10/05 05:20:39;;;;;;;13.50;10.03;;;;;;;;;;5049040;28;20187;-68
2022/10/05 05:23:20;;;;;;;11.27;9.80;;;;;;;;;;5037779;28;20179;-68
2022/10/05 05:25:53;;;;;;;14.47;9.53;;;;;;;;;;5037943;28;20214;-69
2022/10/05 05:28:38;;;;;;;10.47;9.37;;;;;;;;;;5038259;28;20205;-68
2022/10/05 05:31:03;;;;;;;14.63;10.33;;;;;;;;;;5037903;28;20189;-68
2022/10/05 05:33:35;;;;;;;12.73;9.60;;;;;;;;;;5037982;28;20250;-67
2022/10/05 05:36:13;;;;;;;14.60;10.67;;;;;;;;;;5055831;28;20195;-68
2022/10/05 05:38:45;;;;;;;11.57;9.73;;;;;;;;;;5036331;28;20175;-67
2022/10/05 05:41:13;;;;;;;12.77;9.47;;;;;;;;;;5053811;28;20186;-68
2022/10/05 05:43:39;;;;;;;12.23;8.77;;;;;;;;;;5054077;28;20203;-68
2022/10/05 05:46:34;;;;;;;14.63;10.03;;;;;;;;;;5053631;28;20183;-67
2022/10/05 05:49:02;;;;;;;9.90;8.83;;;;;;;;;;5033214;28;20195;-67
2022/10/05 05:51:34;;;;;;;12.63;9.23;;;;;;;;;;5049133;28;20179;-67
2022/10/05 05:54:03;;;;;;;9.90;8.03;;;;;;;;;;5049646;28;20211;-67
2022/10/05 05:56:34;;;;;;;11.20;8.23;;;;;;;;;;5031384;28;20202;-67
2022/10/05 05:59:09;;;;;;;11.43;8.50;;;;;;;;;;5049816;28;20231;-67
2022/10/05 06:01:39;;;;;;;9.03;7.83;;;;;;;;;;5049384;28;20166;-67
2022/10/05 06:04:21;;;;;;;10.17;8.03;;;;;;;;;;5030943;28;20782;-67
2022/10/05 06:06:49;;;;;;;9.73;8.73;;;;;;;;;;5049528;28;20183;-67
2022/10/05 06:09:15;;;;;;;8.63;7.73;;;;;;;;;;5029746;28;20190;-67
2022/10/05 06:11:44;;;;;;;11.93;8.57;;;;;;;;;;5046099;28;20183;-68
2022/10/05 06:14:12;;;;;;;11.73;7.60;;;;;;;;;;5027269;28;20238;-67
2022/10/05 06:16:58;;;;;;;13.43;8.23;;;;;;;;;;5045231;28;20206;-67
2022/10/05 06:19:27;;;;;;;11.17;8.73;;;;;;;;;;5046157;28;20175;-66
2022/10/05 06:21:59;;;;;;;9.10;8.17;;;;;;;;;;5045562;28;20175;-67
2022/10/05 06:24:29;;;;;;;9.10;7.90;;;;;;;;;;5046293;28;20199;-67
2022/10/05 06:27:01;;;;;;;9.07;7.33;;;;;;;;;;5041902;28;20175;-66
2022/10/05 06:29:34;;;;;;;9.97;7.83;;;;;;;;;;5047184;28;20206;-67
2022/10/05 06:32:11;;;;;;;9.37;7.73;;;;;;;;;;5047443;28;20171;-66
2022/10/05 06:34:46;;;;;;;9.50;7.63;;;;;;;;;;5030823;28;20701;-66
2022/10/05 06:37:30;;;;;;;11.60;7.67;;;;;;;;;;5047038;28;20643;-66
2022/10/05 06:40:04;;;;;;;10.23;7.77;;;;;;;;;;5045729;28;20175;-67
2022/10/05 06:42:37;;;;;;;12.43;7.60;;;;;;;;;;5045982;28;20174;-68
2022/10/05 06:45:22;;;;;;;8.60;7.60;;;;;;;;;;5028315;28;20278;-67
2022/10/05 06:47:54;;;;;;;11.73;7.27;;;;;;;;;;5045737;28;20175;-67
2022/10/05 06:50:31;;;;;;;10.60;7.60;;;;;;;;;;5043299;28;20175;-67
2022/10/05 06:53:16;;;;;;;9.37;7.03;;;;;;;;;;5042098;28;20183;-67
2022/10/05 06:55:49;;;;;;;9.57;7.53;;;;;;;;;;5041488;28;20691;-67
2022/10/05 06:58:15;;;;;;;12.87;7.57;;;;;;;;;;5044314;28;20614;-67
2022/10/05 07:00:51;;;;;;;9.60;7.20;;;;;;;;;;5044151;28;20182;-67
2022/10/05 07:03:30;;;;;;;8.70;7.53;;;;;;;;;;5044104;28;20167;-66
2022/10/05 07:06:10;;;;;;;8.07;6.97;;;;;;;;;;5045554;28;20186;-67
2022/10/05 07:08:48;;;;;;;9.13;7.90;;;;;;;;;;5047569;28;20171;-66
2022/10/05 07:11:23;;;;;;;12.70;7.03;;;;;;;;;;5046539;28;20167;-67
2022/10/05 07:13:54;;;;;;;8.87;7.33;;;;;;;;;;5045897;28;20209;-67
2022/10/05 07:16:37;;;;;;;8.03;6.70;;;;;;;;;;5045193;28;20199;-67
2022/10/05 07:19:22;;;;;;;9.93;7.40;;;;;;;;;;5026402;28;20176;-67
2022/10/05 07:21:48;;;;;;;10.33;7.50;;;;;;;;;;5044662;28;20202;-67
2022/10/05 07:24:19;;;;;;;7.70;6.90;;;;;;;;;;5043557;28;20198;-68
2022/10/05 07:26:45;;;;;;;9.70;7.27;;;;;;;;;;5043817;28;20179;-67
2022/10/05 07:29:14;;;;;;;10.47;7.03;;;;;;;;;;5045638;28;20262;-67
2022/10/05 07:31:41;;;;;;;12.97;7.70;;;;;;;;;;5044390;28;20183;-66
2022/10/05 07:34:11;;;;;;;8.33;6.27;;;;;;;;;;5048498;28;20195;-66
2022/10/05 07:39:21;;;;;;;6.93;6.23;;;;;;;;;;5045591;28;20169;-67
2022/10/05 07:41:51;;;;;;;10.70;6.53;;;;;;;;;;5028255;28;20198;-67
2022/10/05 07:44:24;;;;;;;7.13;5.80;;;;;;;;;;5046883;28;20195;-67
2022/10/05 07:46:55;;;;;;;13.70;7.27;;;;;;;;;;5030960;28;20628;-67
2022/10/05 07:49:31;;;;;;;6.37;5.53;;;;;;;;;;5046895;28;20215;-67
2022/10/05 07:52:00;;;;;;;8.87;6.30;;;;;;;;;;5028070;28;20229;-67
2022/10/05 07:54:33;;;;;;;6.73;5.73;;;;;;;;;;5028595;28;20229;-67
2022/10/05 07:57:17;;;;;;;8.97;6.93;;;;;;;;;;5044193;28;20202;-67
2022/10/05 07:59:46;;;;;;;10.10;7.03;;;;;;;;;;5046794;28;20155;-67
2022/10/05 08:02:16;;;;;;;7.33;6.20;;;;;;;;;;5032227;28;20237;-67
2022/10/05 08:04:46;;;;;;;7.53;6.53;;;;;;;;;;5052620;28;20218;-67
2022/10/05 08:07:13;;;;;;;12.30;6.50;;;;;;;;;;5051130;28;20237;-67
2022/10/05 08:09:39;;;;;;;10.27;5.90;;;;;;;;;;5049021;28;20205;-68
2022/10/05 08:12:20;;;;;;;7.57;6.23;;;;;;;;;;5032481;28;20183;-67
2022/10/05 08:14:55;;;;;;;7.93;6.10;;;;;;;;;;5051477;28;20679;-67
2022/10/05 08:17:40;;;;;;;9.33;5.60;;;;;;;;;;5051024;28;20246;-68
2022/10/05 08:20:16;;;;;;;7.53;5.47;;;;;;;;;;5051611;28;20206;-68
2022/10/05 08:22:45;;;;;;;8.63;5.90;;;;;;;;;;5049766;28;20293;-67
2022/10/05 08:25:20;;;;;;;7.67;4.87;;;;;;;;;;5031931;28;20278;-68
2022/10/05 08:27:50;;;;;;;6.10;5.53;;;;;;;;;;5049748;28;20620;-67
2022/10/05 08:30:16;;;;;;;8.77;5.87;;;;;;;;;;5049471;28;20199;-67
2022/10/05 08:33:02;;;;;;;7.07;6.07;;;;;;;;;;5032776;28;20186;-68
2022/10/05 08:35:29;;;;;;;7.63;5.30;;;;;;;;;;5050695;28;20242;-67
2022/10/05 08:37:56;;;;;;;9.83;5.33;;;;;;;;;;5047877;28;20171;-67
2022/10/05 08:40:33;;;;;;;6.90;5.10;;;;;;;;;;5048727;28;20179;-67
2022/10/05 08:43:16;;;;;;;12.27;5.70;;;;;;;;;;5050506;28;20152;-67
2022/10/05 08:45:54;;;;;;;11.00;5.73;;;;;;;;;;5031369;28;20210;-67
2022/10/05 08:48:39;;;;;;;11.47;5.30;;;;;;;;;;5050235;28;20179;-67
2022/10/05 08:51:10;;;;;;;6.87;4.70;;;;;;;;;;5047744;28;20179;-67
2022/10/05 08:53:55;;;;;;;7.03;5.50;;;;;;;;;;5047621;28;20186;-67
2022/10/05 08:56:39;;;;;;;8.43;5.03;;;;;;;;;;5049620;28;20202;-67
2022/10/05 08:59:05;;;;;;;11.30;5.10;;;;;;;;;;5046691;28;20179;-67
2022/10/05 09:01:37;;;;;;;9.43;5.33;;;;;;;;;;5029964;28;20233;-67
2022/10/05 09:04:09;;;;;;;6.47;4.97;;;;;;;;;;5048941;28;20281;-67
2022/10/05 09:06:49;;;;;;;7.90;6.03;;;;;;;;;;5049257;28;20167;-67
2022/10/05 09:09:23;;;;;;;7.23;5.00;;;;;;;;;;5032905;28;20192;-67
2022/10/05 09:12:00;;;;;;;5.50;4.67;;;;;;;;;;5050512;28;20620;-66
2022/10/05 09:14:47;;;;;;;7.17;4.80;;;;;;;;;;5050527;28;20206;-67
2022/10/05 09:17:27;;;;;;;11.17;5.43;;;;;;;;;;5048424;28;20182;-67
2022/10/05 09:20:13;;;;;;;6.63;5.37;;;;;;;;;;5049380;28;20269;-67
2022/10/05 09:22:51;;;;;;;10.10;5.60;;;;;;;;;;5047639;28;20658;-67
2022/10/05 09:25:21;;;;;;;6.10;4.53;;;;;;;;;;5048854;28;20262;-67
2022/10/05 09:27:58;;;;;;;7.07;4.80;;;;;;;;;;5049402;28;20650;-67
2022/10/05 09:30:34;;;;;;;5.33;4.57;;;;;;;;;;5033359;28;20209;-67
2022/10/05 09:33:15;;;;;;;6.60;4.80;;;;;;;;;;5051630;28;20201;-68
2022/10/05 09:35:43;;;;;;;8.10;4.87;;;;;;;;;;5053393;28;20227;-67
2022/10/05 09:38:26;;;;;;;8.60;5.00;;;;;;;;;;5052975;28;20203;-67
2022/10/05 09:41:04;;;;;;;5.50;4.60;;;;;;;;;;5051292;28;20236;-67
2022/10/05 09:43:42;;;;;;;7.90;4.60;;;;;;;;;;5049713;28;20171;-66
2022/10/05 09:46:08;;;;;;;10.00;4.80;;;;;;;;;;5050870;28;20250;-67
2022/10/05 09:48:44;;;;;;;6.30;4.57;;;;;;;;;;5051208;28;20201;-67
2022/10/05 09:51:29;;;;;;;7.17;4.63;;;;;;;;;;5033688;28;20179;-67
2022/10/05 09:54:14;;;;;;;7.30;4.70;;;;;;;;;;5033966;28;20245;-67
2022/10/05 09:56:56;;;;;;;7.60;4.67;;;;;;;;;;5034131;28;20237;-67
2022/10/05 09:59:22;;;;;;;9.30;4.67;;;;;;;;;;5056145;28;20211;-67
2022/10/05 10:02:04;;;;;;;10.37;4.30;;;;;;;;;;5040215;28;20174;-67
2022/10/05 10:04:49;;;;;;;7.83;4.80;;;;;;;;;;5059315;28;20225;-66
2022/10/05 10:07:35;;;;;;;7.03;4.53;;;;;;;;;;5057394;28;20223;-67
2022/10/05 10:10:16;;;;;;;4.77;4.17;;;;;;;;;;5040377;28;20246;-68
2022/10/05 10:12:45;;;;;;;6.00;4.30;;;;;;;;;;5059088;28;20167;-68
2022/10/05 10:15:40;;;;;;;8.10;3.70;;;;;;;;;;5039275;28;20211;-67
2022/10/05 10:18:23;;;;;;;6.20;3.77;;;;;;;;;;5035061;28;20194;-67
2022/10/05 10:20:49;;;;;;;6.80;4.20;;;;;;;;;;5058165;28;20147;-67
2022/10/05 10:23:34;;;;;;;4.40;4.00;;;;;;;;;;5055548;28;20163;-67
2022/10/05 10:26:10;;;;;;;6.97;3.60;;;;;;;;;;5055831;28;20714;-67
2022/10/05 10:28:57;;;;;;;5.87;3.57;;;;;;;;;;5039740;28;20190;-67
2022/10/05 10:31:36;;;;;;;6.20;3.87;;;;;;;;;;5056926;28;20174;-67
2022/10/05 10:34:13;;;;;;;5.80;3.70;;;;;;;;;;5040207;28;20195;-66
2022/10/05 10:36:49;;;;;;;4.23;3.07;;;;;;;;;;5040336;28;20207;-67
2022/10/05 10:39:38;;;;;;;5.30;2.97;;;;;;;;;;5055866;28;20186;-66
2022/10/05 10:42:27;;;;;;;4.10;2.80;;;;;;;;;;5051445;28;20239;-67
2022/10/05 10:44:59;;;;;;;2.93;2.60;;;;;;;;;;5047982;28;20187;-67
2022/10/05 10:47:28;;;;;;;7.33;2.43;;;;;;;;;;5049186;28;20171;-66
2022/10/05 10:49:54;;;;;;;3.67;3.00;;;;;;;;;;5033942;28;20183;-67
2022/10/05 10:52:30;;;;;;;3.27;2.53;;;;;;;;;;5033447;28;20185;-65
2022/10/05 10:55:05;;;;;;;6.60;2.60;;;;;;;;;;5029466;28;20215;-67
2022/10/05 10:57:50;;;;;;;6.27;2.80;;;;;;;;;;5034106;28;20178;-67
2022/10/05 11:00:16;;;;;;;5.23;2.20;;;;;;;;;;5051963;28;20163;-67
2022/10/05 11:03:01;;;;;;;3.03;1.93;;;;;;;;;;5053673;28;20171;-67
2022/10/05 11:05:31;;;;;;;3.37;2.20;;;;;;;;;;5051715;28;20201;-68
2022/10/05 11:07:57;;;;;;;3.47;2.20;;;;;;;;;;5051429;28;20164;-67
2022/10/05 11:10:44;;;;;;;3.70;2.50;;;;;;;;;;5030266;28;20224;-67
2022/10/05 11:13:27;;;;;;;4.57;2.20;;;;;;;;;;5051719;28;20243;-68
2022/10/05 11:15:59;;;;;;;2.33;2.13;;;;;;;;;;5045140;28;20252;-66
2022/10/05 11:18:28;;;;;;;4.87;2.30;;;;;;;;;;5023092;28;20678;-67
2022/10/05 11:21:13;;;;;;;2.40;2.20;;;;;;;;;;5051568;28;20174;-68
2022/10/05 11:23:46;;;;;;;4.23;2.53;;;;;;;;;;5075412;23;20241;-67
2022/10/05 11:26:11;;;;;;;3.30;2.23;;;;;;;;;;5052914;28;20182;-67
2022/10/05 11:29:04;;;;;;;7.00;2.53;;;;;;;;;;5035009;28;20182;-66
2022/10/05 11:31:48;;;;;;;2.03;1.90;;;;;;;;;;5015450;28;20217;-67
2022/10/05 11:34:41;;;;;;;3.33;2.37;;;;;;;;;;5034981;28;20198;-67
2022/10/05 11:37:06;;;;;;;3.93;2.20;;;;;;;;;;5009217;28;20634;-67
2022/10/05 11:39:51;;;;;;;4.67;2.23;;;;;;;;;;5057120;28;20179;-67
2022/10/05 11:42:29;;;;;;;3.70;2.10;;;;;;;;;;5057135;28;20261;-67
2022/10/05 11:45:10;;;;;;;2.70;2.30;;;;;;;;;;5057020;28;20177;-67
2022/10/05 11:47:39;;;;;;;6.47;2.37;;;;;;;;;;5039042;28;20202;-67
2022/10/05 11:50:11;;;;;;;3.07;2.07;;;;;;;;;;5038870;28;20673;-67
2022/10/05 11:52:40;;;;;;;4.50;2.60;;;;;;;;;;5056749;28;20251;-67
2022/10/05 11:55:25;;;;;;;6.37;2.50;;;;;;;;;;5056658;28;20174;-67
2022/10/05 11:58:00;;;;;;;3.60;2.00;;;;;;;;;;5056974;28;20309;-67
2022/10/05 12:00:43;;;;;;;7.67;2.47;;;;;;;;;;5038724;28;20178;-67
2022/10/05 12:03:09;;;;;;;5.87;2.20;;;;;;;;;;5038957;28;20214;-67
2022/10/05 12:05:50;;;;;;;5.10;2.30;;;;;;;;;;5057285;28;20638;-67
2022/10/05 12:08:35;;;;;;;2.33;1.97;;;;;;;;;;5057283;28;20185;-67
2022/10/05 12:11:12;;;;;;;6.47;2.50;;;;;;;;;;5056507;28;20194;-67
2022/10/05 12:13:42;;;;;;;4.50;2.17;;;;;;;;;;5058454;28;20564;-69
2022/10/05 12:16:14;;;;;;;3.73;2.13;;;;;;;;;;5038510;28;20236;-69
2022/10/05 12:18:40;;;;;;;4.77;2.13;;;;;;;;;;5056323;28;20257;-68
2022/10/05 12:21:09;;;;;;;5.40;2.30;;;;;;;;;;5038676;28;20206;-69
2022/10/05 12:23:50;;;;;;;4.33;2.20;;;;;;;;;;5038304;28;20236;-69
2022/10/05 12:26:25;;;;;;;5.93;2.30;;;;;;;;;;5056353;28;20186;-69
2022/10/05 12:28:55;;;;;;;4.00;2.60;;;;;;;;;;5056140;28;20257;-68
2022/10/05 12:31:24;;;;;;;6.33;3.67;;;;;;;;;;5038361;28;20194;-74
2022/10/05 12:33:54;;;;;;;2.87;2.17;;;;;;;;;;5038552;28;20226;-69
2022/10/05 12:36:27;;;;;;;5.10;2.23;;;;;;;;;;5038506;28;20214;-68
2022/10/05 12:39:07;;;;;;;3.63;2.30;;;;;;;;;;5056490;28;20159;-68
2022/10/05 12:41:38;;;;;;;3.13;2.40;;;;;;;;;;5038093;28;20685;-69
2022/10/05 12:44:16;;;;;;;2.53;2.10;;;;;;;;;;5055854;28;20251;-70
2022/10/05 12:46:57;;;;;;;2.10;1.90;;;;;;;;;;5055512;28;20175;-68
2022/10/05 12:49:26;;;;;;;4.33;2.00;;;;;;;;;;5056110;28;20240;-69
2022/10/05 12:51:57;;;;;;;5.23;2.50;;;;;;;;;;5056040;28;20216;-69
2022/10/05 12:54:29;;;;;;;2.57;1.90;;;;;;;;;;5037702;28;20581;-69
2022/10/05 12:56:55;;;;;;;6.33;2.30;;;;;;;;;;5038029;28;20686;-69
2022/10/05 12:59:21;;;;;;;3.70;2.00;;;;;;;;;;5055818;28;20210;-69
2022/10/05 13:02:07;;;;;;;5.77;2.37;;;;;;;;;;5037656;28;20202;-69
2022/10/05 13:04:33;;;;;;;4.03;2.30;;;;;;;;;;5055424;28;20221;-69
2022/10/05 13:06:59;;;;;;;5.23;1.97;;;;;;;;;;5037369;28;20664;-70
2022/10/05 13:09:51;;;;;;;3.27;2.37;;;;;;;;;;5055183;28;20281;-69
2022/10/05 13:12:36;;;;;;;3.27;2.50;;;;;;;;;;5050933;28;20274;-70
2022/10/05 13:15:07;;;;;;;6.63;2.00;;;;;;;;;;5037267;28;20192;-69
2022/10/05 13:17:38;;;;;;;2.37;2.00;;;;;;;;;;5055525;28;20170;-68
2022/10/05 13:20:26;;;;;;;4.23;2.00;;;;;;;;;;5037186;28;20224;-70
2022/10/05 13:23:06;;;;;;;6.90;2.55;;;;;;;;;;5053996;28;20757;-69
2022/10/05 13:25:34;;;;;;;11.20;2.53;;;;;;;;;;5037521;28;20166;-69
2022/10/05 13:28:09;;;;;;;7.35;2.70;;;;;;;;;;5036112;28;20411;-69
2022/10/05 13:30:36;;;;;;;2.40;2.00;;;;;;;;;;5037194;28;20177;-70
2022/10/05 13:33:20;;;;;;;4.57;1.83;;;;;;;;;;5055033;28;20201;-70
2022/10/05 13:35:52;;;;;;;2.63;1.90;;;;;;;;;;5037066;28;20674;-70
2022/10/05 13:38:37;;;;;;;2.57;1.73;;;;;;;;;;5037553;28;20186;-70
2022/10/05 13:41:05;;;;;;;2.43;2.20;;;;;;;;;;5054763;28;20541;-71
2022/10/05 13:43:42;;;;;;;1.60;1.50;;;;;;;;;;5054738;28;20221;-68
2022/10/05 13:46:19;;;;;;;1.90;1.73;;;;;;;;;;5054839;28;20193;-67
2022/10/05 13:48:45;;;;;;;2.33;1.90;;;;;;;;;;5036760;28;20181;-68
2022/10/05 13:51:17;;;;;;;3.30;1.67;;;;;;;;;;5055183;28;20194;-67
2022/10/05 13:53:47;;;;;;;4.57;2.07;;;;;;;;;;5036543;28;20739;-68
2022/10/05 13:56:16;;;;;;;2.27;2.07;;;;;;;;;;5054572;28;20217;-68
2022/10/05 13:58:45;;;;;;;3.93;1.73;;;;;;;;;;5053650;28;20254;-68
2022/10/05 14:01:29;;;;;;;3.73;2.03;;;;;;;;;;5054668;28;20179;-68
2022/10/05 14:04:06;;;;;;;1.77;1.67;;;;;;;;;;5054650;28;20222;-68
2022/10/05 14:06:34;;;;;;;2.23;1.60;;;;;;;;;;5055928;28;20182;-69
2022/10/05 14:09:00;;;;;;;2.50;2.03;;;;;;;;;;5037611;28;20189;-68
2022/10/05 14:11:32;;;;;;;1.80;1.60;;;;;;;;;;5055653;28;20178;-68
2022/10/05 14:14:00;;;;;;;1.50;1.40;;;;;;;;;;5055502;28;20206;-68
2022/10/05 14:16:26;;;;;;;4.70;1.60;;;;;;;;;;5055735;28;20202;-69
2022/10/05 14:19:05;;;;;;;2.13;1.60;;;;;;;;;;5055295;28;20530;-68
2022/10/05 14:21:31;;;;;;;4.40;1.80;;;;;;;;;;5055263;28;20175;-67
2022/10/05 14:24:17;;;;;;;1.60;1.50;;;;;;;;;;5056929;28;20221;-69
2022/10/05 14:26:49;;;;;;;5.93;2.00;;;;;;;;;;5041272;28;20200;-69
2022/10/05 14:29:16;;;;;;;2.30;1.67;;;;;;;;;;5055915;28;20167;-69
2022/10/05 14:31:47;;;;;;;2.87;1.63;;;;;;;;;;5055863;28;20538;-69
2022/10/05 14:34:27;;;;;;;1.73;1.60;;;;;;;;;;5055313;28;20209;-67
2022/10/05 14:36:58;;;;;;;3.47;1.67;;;;;;;;;;5055093;28;20201;-67
2022/10/05 14:39:25;;;;;;;7.37;1.90;;;;;;;;;;5036679;28;20187;-67
2022/10/05 14:41:51;;;;;;;1.90;1.53;;;;;;;;;;5054270;28;20171;-66
2022/10/05 14:44:35;;;;;;;1.73;1.53;;;;;;;;;;5036060;28;20285;-68
2022/10/05 14:47:14;;;;;;;1.87;1.60;;;;;;;;;;5053966;28;20173;-67
2022/10/05 14:49:47;;;;;;;3.17;1.60;;;;;;;;;;5054315;28;20248;-67
2022/10/05 14:52:34;;;;;;;2.23;1.60;;;;;;;;;;5054201;28;20606;-67
2022/10/05 14:55:09;;;;;;;2.23;1.67;;;;;;;;;;5035845;28;20594;-67
2022/10/05 14:57:43;;;;;;;3.83;1.77;;;;;;;;;;5053787;28;20202;-67
2022/10/05 15:00:11;;;;;;;3.00;1.90;;;;;;;;;;5053965;28;20543;-67
2022/10/05 15:02:55;;;;;;;6.87;2.00;;;;;;;;;;5055214;28;20199;-67
2022/10/05 15:05:25;;;;;;;4.93;1.73;;;;;;;;;;5035382;28;20182;-68
2022/10/05 15:07:56;;;;;;;2.50;1.70;;;;;;;;;;5053336;28;20204;-67
2022/10/05 15:10:31;;;;;;;2.27;2.00;;;;;;;;;;5035325;28;20178;-67
2022/10/05 15:13:07;;;;;;;1.97;1.73;;;;;;;;;;5053767;28;20197;-67
2022/10/05 15:15:39;;;;;;;5.60;1.97;;;;;;;;;;5035495;28;20292;-68
2022/10/05 15:18:24;;;;;;;2.90;2.20;;;;;;;;;;5054069;28;20627;-67
2022/10/05 15:20:55;;;;;;;8.43;1.90;;;;;;;;;;5053759;28;20541;-67
2022/10/05 15:23:25;;;;;;;3.07;2.10;;;;;;;;;;5036125;28;20214;-68